Hilo International Airport Hilo US
ICAO: PHTO
IATA: ITO
Category: Medium
Scheduled Services:

Elevation: 38 ft
TransAlt. 18000 ft.

Airport Communications:
APP/DEP:119.7
ATIS:126.4
CTAF:118.1
GND:121.9
HONOLULU RDO:122.6
TWR:118.1

PHTO Zoom In..

Runways:

(A) RW 03 length 5600 ft width 150 ft
---- / hdg 30

(B) RW 08 length 9800 ft width 150 ft
---- / hdg 79

(C) RW 21 length 5600 ft width 150 ft
---- / hdg 210

(D) RW 26 length 9800 ft width 150 ft
ILS 110.70 / hdg 259

Location; PHTO
Day. 20 / Time. 19.53 Zulu
* Altimeter: 30.01
* Temperature: 26° c. 78.8°f.
* Wind from: 220° Speed 05 kn.
Dewpoint: 21° c.
Visibility: 10 Statute Miles.
Clouds: Broken 4900 ft.
Clouds: Overcast 6500 ft.

PHTO 201953Z 22005KT 10SM BKN049 OVC065 26/21 A3001 RMK AO2 SLP161 T02610211


Wind From 220°
Speed 05 kn.

 
 
jpsmedia.com for Web Design worldairports.se 2018   terms of use